• Join FlightAware (Why Join?)
  • Login
  • US Flag 
02:08PM EDT


 

Airport Tracker/Info


-or-


 

Live Flight TrackerFlight Track Log ✈ N960DL ✈ 25-Apr-2013 ✈ KATL - KDAY

Flight Track Log - Related Links

Times and Time Zones

All times are in EDT time to prevent confusion due to time zone crossing. See the N960DL flight status page for this flight to view local times or setup timezone preferences in your user account.

Time Position Orientation Groundspeed Altitude Reporting Facility
EDT Latitude Longitude Course Direction KTS MPH feet Rate Location/Type
09:17PM 33.6514 -84.4881 340° North 442 509 2,800  Level Atlanta Center
09:18PM 33.6667 -84.5167 303° West 235 270 3,800 3,000 Climbing Atlanta TRACON
09:19PM 33.7928 -84.1667 North  Level FlightAware Approximate
09:19PM 33.7167 -84.5833 312° West 266 306 7,100  Level Atlanta TRACON
09:20PM 33.8852 -84.2185 320° Northwest  Level FlightAware Approximate
09:20PM 33.7833 -84.5833 360° North 275 316 9,500  Level Atlanta TRACON
09:21PM 33.9757 -84.2859 339° North  Level FlightAware Approximate
09:21PM 33.9164 -84.5369 16° North 294 338 11,300  Level Atlanta Center
09:22PM 34.0766 -84.3317 339° North  Level FlightAware Approximate
09:22PM 34.0042 -84.5100 14° North 345 397 12,700  Level Atlanta Center
09:23PM 34.1787 -84.3701 340° North  Level FlightAware Approximate
09:23PM 34.1067 -84.4778 15° North 373 429 15,300  Level Atlanta Center
09:24PM 34.2236 -84.4433 14° North 408 470 17,600 1,980 Climbing Atlanta Center
09:25PM 34.3406 -84.4211 North 420 483 19,300 1,920 Climbing Atlanta Center
09:26PM 34.4700 -84.4192 North 420 483 21,500 1,800 Climbing Atlanta Center
09:27PM 34.5908 -84.4147 North 425 489 22,900 1,560 Climbing Atlanta Center
09:28PM 34.7119 -84.4103 North 431 496 24,700 1,500 Climbing Atlanta Center
09:29PM 34.8372 -84.4108 360° North 447 514 26,000 1,320 Climbing Atlanta Center
09:30PM 34.9603 -84.4089 North 442 509 27,400 1,440 Climbing Atlanta Center
09:31PM 35.0833 -84.4067 North 436 502 28,900 1,500 Climbing Atlanta Center
09:32PM 35.2025 -84.4022 North 436 502 30,400 1,020 Climbing Atlanta Center
09:33PM 35.3214 -84.4003 North 430 495 31,000 300 Climbing Atlanta Center
09:34PM 35.4361 -84.3956 North 420 483 31,000  Level Atlanta Center
09:35PM 35.5447 -84.3936 North 420 483 31,100 480 Climbing Atlanta Center
09:36PM 35.6614 -84.3914 North 420 483 32,000 720 Climbing Atlanta Center
09:37PM 35.7761 -84.3869 North 420 483 32,600 540 Climbing Atlanta Center
09:38PM 35.8931 -84.3847 North 415 478 33,100 360 Climbing Atlanta Center
09:41PM 36.1639 -84.3764 North 404 465 34,000 240 Climbing Indianapolis Center
09:42PM 36.2764 -84.3747 North 405 466 34,000  Level Indianapolis Center
09:43PM 36.3911 -84.3717 North 411 473 34,000  Level Indianapolis Center
09:44PM 36.5197 -84.3706 360° North 413 475 34,000  Level Indianapolis Center
09:45PM 36.6353 -84.3681 North 414 476 34,000 -660 Level Indianapolis Center
09:46PM 36.7503 -84.3678 360° North 413 475 32,700 -1,020 Descending Indianapolis Center
09:47PM 36.8636 -84.3647 North 407 468 32,000 -360 Descending Indianapolis Center
09:48PM 36.9747 -84.3597 North 400 460 32,000  Level Indianapolis Center
09:49PM 37.0889 -84.3556 North 409 471 32,000  Level Indianapolis Center
09:50PM 37.2056 -84.3514 North 416 479 32,000  Level Indianapolis Center
09:51PM 37.3408 -84.3458 North 417 480 32,000  Level Indianapolis Center
09:52PM 37.4564 -84.3431 North 415 478 32,000  Level Indianapolis Center
09:53PM 37.5725 -84.3394 North 414 476 32,000  Level Indianapolis Center
09:54PM 37.6903 -84.3356 North 419 482 32,000 -120 Level Indianapolis Center
09:55PM 37.8058 -84.3333 North 415 478 31,800 -900 Descending Indianapolis Center
09:56PM 37.9186 -84.3328 360° North 405 466 30,200 -1,860 Descending Indianapolis Center
09:57PM 38.0347 -84.3286 North 420 483 28,000 -1,560 Descending Indianapolis Center
09:58PM 38.1536 -84.3264 North 426 490 27,100 -840 Descending Indianapolis Center
09:59PM 38.2714 -84.3233 North 423 487 26,300 -1,500 Descending Indianapolis Center
10:00PM 38.3883 -84.3194 North 419 482 24,100 -2,880 Descending Indianapolis Center
10:01PM 38.5197 -84.3169 North 407 468 20,500 -3,000 Descending Indianapolis Center
10:02PM 38.6275 -84.3158 360° North 393 452 18,000 -2,760 Descending Indianapolis Center
10:03PM 38.7294 -84.3444 348° North 363 418 14,900 -2,040 Descending Indianapolis Center
10:04PM 38.8247 -84.3878 340° North 356 410 13,900 -960 Descending Indianapolis Center
10:05PM 38.8833 -84.4167 339° North 359 413 13,400 -1,920 Descending Cincinnati TRACON
10:06PM 38.9833 -84.4167 360° North 364 419 10,900 -1,380 Descending Cincinnati TRACON
10:07PM 39.1264 -84.3847 10° North 362 417 10,000 -420 Descending Indianapolis Center
10:08PM 39.2214 -84.3478 17° North 367 422 9,900  Descending Indianapolis Center
10:09PM 39.2456 -84.3361 20° North 370 426 10,000  Climbing Indianapolis Center
10:09PM 39.3181 -84.3003 21° North 368 423 9,900 -60 Descending Indianapolis Center
10:10PM 39.4150 -84.2522 21° North 369 425 9,900  Level Indianapolis Center
10:11PM 39.5072 -84.2072 21° North 357 411 9,900 -240 Level Indianapolis Center
10:12PM 39.5858 -84.1678 21° North 314 361 9,500 -1,080 Descending Indianapolis Center
10:13PM 39.6572 -84.1311 22° Northeast 277 319 7,800 -1,680 Descending Indianapolis Center
10:15PM 39.7581 -84.0844 20° North 278 320 5,700 -1,680 Descending Indianapolis Center
10:15PM 39.8022 -84.0611 22° Northeast 274 315 4,500 -1,380 Descending Indianapolis Center
10:16PM 39.8317 -84.0533 11° North 244 281 4,200 -840 Descending Indianapolis Center